createdAt,value
2019-03-03T00:01:55.758Z,61.85
2019-03-03T00:04:57.672Z,61.74
2019-03-03T00:07:59.672Z,61.69
2019-03-03T00:11:01.586Z,61.67
2019-03-03T00:14:03.561Z,61.69
2019-03-03T00:17:05.432Z,61.85
2019-03-03T00:20:10.959Z,62.00
2019-03-03T00:23:12.869Z,61.80
2019-03-03T00:26:15.132Z,61.81
2019-03-03T00:29:17.067Z,61.98
2019-03-03T00:32:19.015Z,62.16
2019-03-03T00:35:21.010Z,62.18
2019-03-03T00:38:24.686Z,62.21
2019-03-03T00:41:31.026Z,62.48
2019-03-03T00:44:37.668Z,62.56
2019-03-03T00:47:47.434Z,62.82
2019-03-03T00:51:06.699Z,62.83
2019-03-03T00:54:10.390Z,62.89
2019-03-03T00:57:20.482Z,62.85
2019-03-03T01:00:28.419Z,62.74
2019-03-03T01:03:32.156Z,62.93
2019-03-03T01:06:52.262Z,62.92
2019-03-03T01:09:59.071Z,63.07
2019-03-03T01:13:08.868Z,63.09
2019-03-03T01:16:12.548Z,63.22
2019-03-03T01:19:25.286Z,63.06
2019-03-03T01:22:41.144Z,63.04
2019-03-03T01:25:43.052Z,62.98
2019-03-03T01:28:44.991Z,62.90
2019-03-03T01:31:47.063Z,62.93
2019-03-03T01:34:48.944Z,62.83
2019-03-03T01:37:52.295Z,62.91
2019-03-03T01:40:54.178Z,62.98
2019-03-03T01:43:56.143Z,63.03
2019-03-03T01:46:58.117Z,63.02
2019-03-03T01:50:00.022Z,62.92
2019-03-03T01:53:01.985Z,63.13
2019-03-03T01:56:04.427Z,62.92
2019-03-03T01:59:06.369Z,62.86
2019-03-03T02:02:08.324Z,62.88
2019-03-03T02:05:10.355Z,62.99
2019-03-03T02:08:12.904Z,63.05
2019-03-03T02:11:14.821Z,63.03
2019-03-03T02:14:16.823Z,63.02
2019-03-03T02:17:18.729Z,63.03
2019-03-03T02:20:20.680Z,62.95
2019-03-03T02:23:22.657Z,62.95
2019-03-03T02:26:24.590Z,62.98
2019-03-03T02:29:26.632Z,62.83
2019-03-03T02:32:28.515Z,62.76
2019-03-03T02:35:31.059Z,62.90
2019-03-03T02:38:34.234Z,62.81
2019-03-03T02:41:36.220Z,62.96
2019-03-03T02:44:38.199Z,62.92
2019-03-03T02:47:40.105Z,63.11
2019-03-03T02:50:42.089Z,63.29
2019-03-03T02:53:44.050Z,63.32
2019-03-03T02:56:45.982Z,63.34
2019-03-03T02:59:47.959Z,63.05
2019-03-03T03:02:51.848Z,63.13
2019-03-03T03:06:01.475Z,63.03
2019-03-03T03:09:18.923Z,63.02
2019-03-03T03:12:28.706Z,62.87
2019-03-03T03:15:41.438Z,63.09
2019-03-03T03:18:50.959Z,63.43
2019-03-03T03:21:54.664Z,63.18
2019-03-03T03:25:04.482Z,63.01
2019-03-03T03:28:17.236Z,62.83
2019-03-03T03:31:27.519Z,62.83
2019-03-03T03:34:46.504Z,63.07
2019-03-03T03:37:50.316Z,63.07
2019-03-03T03:41:09.226Z,63.19
2019-03-03T03:44:13.222Z,63.14
2019-03-03T03:47:22.992Z,63.21
2019-03-03T03:50:32.882Z,63.17
2019-03-03T03:53:42.938Z,63.16
2019-03-03T03:56:55.513Z,63.11
2019-03-03T04:00:14.426Z,63.04
2019-03-03T04:03:36.513Z,63.26
2019-03-03T04:06:48.948Z,63.51
2019-03-03T04:09:52.649Z,63.38
2019-03-03T04:12:56.331Z,63.25
2019-03-03T04:16:00.113Z,63.54
2019-03-03T04:19:09.633Z,63.24
2019-03-03T04:22:16.406Z,63.12
2019-03-03T04:25:22.628Z,63.32
2019-03-03T04:28:29.239Z,63.08
2019-03-03T04:31:33.001Z,63.07
2019-03-03T04:34:53.626Z,63.19
2019-03-03T04:37:57.355Z,63.30
2019-03-03T04:41:08.572Z,63.20
2019-03-03T04:44:31.157Z,63.43
2019-03-03T04:47:49.960Z,63.85
2019-03-03T04:51:08.917Z,63.90
2019-03-03T04:54:15.200Z,63.79
2019-03-03T04:57:18.897Z,63.86
2019-03-03T05:00:22.796Z,64.04
2019-03-03T05:03:32.484Z,63.86
2019-03-03T05:06:45.147Z,64.13
2019-03-03T05:09:54.718Z,63.99
2019-03-03T05:13:04.401Z,64.17
2019-03-03T05:16:14.238Z,64.05
2019-03-03T05:19:16.160Z,64.41
2019-03-03T05:22:18.069Z,64.48
2019-03-03T05:25:20.028Z,65.01
2019-03-03T05:28:21.936Z,64.66
2019-03-03T05:31:23.953Z,64.78
2019-03-03T05:34:25.867Z,64.88
2019-03-03T05:37:27.822Z,65.28
2019-03-03T05:40:29.698Z,65.86
2019-03-03T05:43:31.725Z,66.22
2019-03-03T05:46:33.586Z,67.19
2019-03-03T05:49:35.553Z,67.41
2019-03-03T05:52:37.538Z,67.29
2019-03-03T05:55:39.446Z,67.10
2019-03-03T05:58:41.372Z,67.43
2019-03-03T06:01:43.376Z,67.39
2019-03-03T06:04:45.261Z,67.31
2019-03-03T06:07:47.186Z,67.54
2019-03-03T06:10:49.102Z,67.78
2019-03-03T06:13:51.083Z,67.62
2019-03-03T06:16:52.987Z,67.24
2019-03-03T06:19:55.884Z,67.32
2019-03-03T06:22:57.881Z,67.16
2019-03-03T06:25:59.935Z,67.39
2019-03-03T06:29:01.828Z,67.65
2019-03-03T06:32:03.799Z,67.96
2019-03-03T06:35:07.587Z,68.33
2019-03-03T06:38:09.506Z,68.05
2019-03-03T06:41:12.089Z,68.33
2019-03-03T06:44:14.130Z,68.64
2019-03-03T06:47:16.090Z,68.51
2019-03-03T06:50:17.975Z,68.67
2019-03-03T06:53:19.913Z,68.25
2019-03-03T06:56:21.901Z,67.96
2019-03-03T06:59:23.886Z,67.67
2019-03-03T07:02:25.832Z,67.58
2019-03-03T07:05:27.762Z,67.32
2019-03-03T07:08:29.755Z,67.09
2019-03-03T07:11:31.757Z,66.81
2019-03-03T07:14:33.638Z,66.57
2019-03-03T07:17:35.552Z,66.09
2019-03-03T07:20:37.480Z,65.88
2019-03-03T07:23:39.470Z,65.50
2019-03-03T07:26:41.386Z,64.96
2019-03-03T07:29:43.342Z,64.60
2019-03-03T07:33:05.549Z,64.05
2019-03-03T07:36:07.481Z,63.93
2019-03-03T07:39:14.744Z,63.51
2019-03-03T07:42:16.696Z,62.97
2019-03-03T07:45:18.741Z,62.86
2019-03-03T07:48:21.632Z,62.83
2019-03-03T07:51:23.722Z,62.08
2019-03-03T07:54:25.662Z,62.01
2019-03-03T07:57:27.659Z,62.08
2019-03-03T08:00:29.621Z,61.82
2019-03-03T08:03:31.630Z,61.42
2019-03-03T08:06:34.766Z,60.90
2019-03-03T08:09:36.693Z,59.84
2019-03-03T08:12:38.576Z,58.42
2019-03-03T08:15:40.555Z,57.83
2019-03-03T08:18:42.558Z,57.31
2019-03-03T08:21:44.541Z,57.02
2019-03-03T08:24:46.420Z,56.38
2019-03-03T08:27:49.398Z,55.11
2019-03-03T08:30:51.304Z,54.79
2019-03-03T08:33:53.330Z,55.07
2019-03-03T08:37:12.711Z,55.20
2019-03-03T08:40:14.639Z,54.79
2019-03-03T08:43:40.620Z,55.37
2019-03-03T08:47:15.677Z,55.15
2019-03-03T08:50:26.574Z,54.84
2019-03-03T08:54:02.394Z,54.78
2019-03-03T08:57:31.128Z,54.81
2019-03-03T09:00:42.353Z,54.20
2019-03-03T09:03:55.175Z,54.51
2019-03-03T09:07:07.841Z,54.15
2019-03-03T09:10:14.455Z,53.73
2019-03-03T09:13:40.263Z,52.77
2019-03-03T09:17:06.151Z,52.75
2019-03-03T09:20:21.312Z,52.56
2019-03-03T09:23:40.137Z,52.34
2019-03-03T09:27:02.218Z,51.95
2019-03-03T09:30:15.481Z,50.99
2019-03-03T09:33:28.485Z,51.10
2019-03-03T09:36:32.250Z,52.16
2019-03-03T09:39:52.569Z,51.18
2019-03-03T09:42:59.434Z,51.46
2019-03-03T09:46:05.921Z,51.08
2019-03-03T09:49:09.683Z,51.06
2019-03-03T09:52:25.443Z,50.99
2019-03-03T09:55:45.735Z,51.08
2019-03-03T09:59:01.662Z,50.60
2019-03-03T10:02:17.300Z,51.31
2019-03-03T10:05:23.832Z,51.55
2019-03-03T10:08:45.453Z,51.20
2019-03-03T10:11:51.774Z,50.27
2019-03-03T10:15:07.405Z,51.05
2019-03-03T10:18:20.252Z,51.13
2019-03-03T10:21:36.081Z,49.45
2019-03-03T10:24:39.833Z,50.68
2019-03-03T10:27:46.233Z,49.29
2019-03-03T10:30:53.103Z,49.42
2019-03-03T10:34:16.049Z,50.00
2019-03-03T10:37:19.861Z,49.95
2019-03-03T10:40:23.610Z,50.01
2019-03-03T10:43:27.373Z,49.95
2019-03-03T10:46:47.985Z,50.67
2019-03-03T10:50:07.309Z,49.79
2019-03-03T10:53:26.046Z,50.28
2019-03-03T10:56:32.956Z,51.15
2019-03-03T10:59:55.395Z,50.51
2019-03-03T11:03:12.656Z,51.95
2019-03-03T11:06:16.362Z,50.96
2019-03-03T11:09:33.473Z,50.66
2019-03-03T11:12:37.206Z,50.94
2019-03-03T11:15:47.048Z,50.79
2019-03-03T11:19:08.277Z,51.16
2019-03-03T11:22:14.957Z,49.51
2019-03-03T11:25:21.470Z,48.33
2019-03-03T11:28:30.985Z,47.60
2019-03-03T11:31:51.141Z,48.60
2019-03-03T11:35:12.925Z,47.72
2019-03-03T11:38:22.756Z,48.84
2019-03-03T11:41:26.518Z,48.26
2019-03-03T11:44:33.428Z,48.21
2019-03-03T11:48:03.614Z,48.43
2019-03-03T11:51:11.983Z,48.37
2019-03-03T11:54:15.793Z,47.71
2019-03-03T11:57:25.575Z,47.55
2019-03-03T12:00:45.924Z,47.76
2019-03-03T12:03:49.707Z,47.39
2019-03-03T12:07:08.554Z,47.69
2019-03-03T12:10:12.472Z,47.19
2019-03-03T12:13:22.063Z,47.41
2019-03-03T12:16:29.708Z,47.03
2019-03-03T12:19:42.312Z,47.17
2019-03-03T12:22:49.025Z,47.34
2019-03-03T12:26:04.849Z,47.54
2019-03-03T12:29:11.768Z,47.98
2019-03-03T12:32:24.784Z,48.61
2019-03-03T12:35:28.576Z,47.75
2019-03-03T12:38:38.483Z,47.63
2019-03-03T12:41:45.315Z,47.79
2019-03-03T12:44:49.170Z,48.55
2019-03-03T12:48:02.074Z,48.61
2019-03-03T12:51:09.790Z,48.50
2019-03-03T12:54:22.736Z,47.86
2019-03-03T12:57:32.343Z,47.99
2019-03-03T13:00:52.555Z,48.71
2019-03-03T13:04:02.072Z,48.08
2019-03-03T13:07:18.075Z,48.28
2019-03-03T13:10:34.210Z,48.21
2019-03-03T13:13:54.570Z,48.17
2019-03-03T13:16:58.356Z,48.73
2019-03-03T13:20:08.400Z,48.35
2019-03-03T13:23:12.201Z,48.17
2019-03-03T13:26:32.189Z,48.03
2019-03-03T13:29:45.355Z,48.61
2019-03-03T13:33:01.189Z,49.03
2019-03-03T13:36:11.429Z,49.11
2019-03-03T13:39:18.186Z,49.09
2019-03-03T13:42:38.843Z,48.97
2019-03-03T13:45:40.763Z,48.97
2019-03-03T13:48:42.753Z,48.28
2019-03-03T13:51:44.887Z,48.04
2019-03-03T13:54:46.869Z,48.26
2019-03-03T13:57:48.762Z,47.79
2019-03-03T14:00:50.824Z,47.76
2019-03-03T14:03:52.738Z,47.53
2019-03-03T14:06:54.660Z,47.38
2019-03-03T14:09:56.589Z,47.97
2019-03-03T14:12:58.570Z,48.68
2019-03-03T14:16:00.488Z,48.79
2019-03-03T14:19:02.399Z,48.46
2019-03-03T14:22:04.537Z,49.06
2019-03-03T14:25:07.717Z,48.61
2019-03-03T14:28:17.370Z,49.16
2019-03-03T14:31:19.259Z,49.16
2019-03-03T14:34:21.201Z,48.68
2019-03-03T14:37:23.169Z,48.81
2019-03-03T14:40:27.891Z,48.84
2019-03-03T14:43:29.823Z,49.06
2019-03-03T14:46:31.808Z,49.97
2019-03-03T14:49:33.729Z,49.99
2019-03-03T14:52:35.843Z,50.00
2019-03-03T14:55:37.845Z,49.97
2019-03-03T14:58:39.949Z,49.91
2019-03-03T15:01:41.934Z,49.62
2019-03-03T15:04:43.836Z,50.26
2019-03-03T15:07:46.091Z,50.39
2019-03-03T15:10:47.978Z,50.47
2019-03-03T15:13:53.023Z,50.30
2019-03-03T15:16:56.791Z,50.52
2019-03-03T15:19:58.754Z,50.54
2019-03-03T15:23:01.491Z,50.64
2019-03-03T15:26:03.448Z,50.77
2019-03-03T15:29:06.782Z,50.83
2019-03-03T15:32:09.189Z,51.20
2019-03-03T15:35:12.410Z,51.25
2019-03-03T15:38:14.358Z,51.28
2019-03-03T15:41:16.315Z,51.40
2019-03-03T15:44:18.315Z,51.61
2019-03-03T15:47:21.557Z,51.82
2019-03-03T15:50:25.559Z,51.77
2019-03-03T15:53:27.554Z,51.99
2019-03-03T15:56:29.565Z,52.04
2019-03-03T15:59:31.969Z,52.16
2019-03-03T16:02:34.331Z,52.36
2019-03-03T16:05:36.827Z,52.50
2019-03-03T16:08:41.765Z,52.34
2019-03-03T16:11:44.727Z,52.21
2019-03-03T16:14:49.288Z,52.38
2019-03-03T16:17:54.777Z,52.64
2019-03-03T16:20:58.609Z,52.83
2019-03-03T16:24:03.995Z,52.97
2019-03-03T16:27:06.055Z,53.07
2019-03-03T16:30:12.145Z,53.09
2019-03-03T16:33:20.640Z,53.10
2019-03-03T16:36:19.522Z,53.18
2019-03-03T16:39:21.465Z,53.45
2019-03-03T16:42:25.201Z,53.41
2019-03-03T16:45:27.314Z,53.64
2019-03-03T16:48:32.164Z,53.84
2019-03-03T16:51:35.717Z,54.10
2019-03-03T16:54:37.725Z,53.95
2019-03-03T16:57:39.726Z,54.30
2019-03-03T17:00:43.237Z,54.61
2019-03-03T17:03:45.359Z,54.75
2019-03-03T17:06:47.290Z,54.77
2019-03-03T17:09:51.646Z,55.36
2019-03-03T17:12:53.573Z,55.83
2019-03-03T17:15:55.555Z,55.94
2019-03-03T17:18:57.769Z,55.61
2019-03-03T17:22:00.006Z,55.60
2019-03-03T17:25:02.156Z,55.61
2019-03-03T17:28:05.705Z,55.67
2019-03-03T17:31:07.644Z,55.62
2019-03-03T17:34:13.265Z,55.58
2019-03-03T17:37:16.628Z,55.66
2019-03-03T17:40:25.859Z,55.82
2019-03-03T17:43:27.808Z,55.93
2019-03-03T17:46:31.416Z,55.99
2019-03-03T17:49:35.431Z,55.98
2019-03-03T17:52:39.246Z,56.14
2019-03-03T17:55:42.779Z,56.21
2019-03-03T17:58:46.684Z,56.08
2019-03-03T18:01:51.054Z,56.03
2019-03-03T18:04:57.157Z,56.01
2019-03-03T18:07:59.236Z,55.92
2019-03-03T18:11:01.739Z,55.89
2019-03-03T18:14:05.669Z,55.87
2019-03-03T18:17:18.244Z,56.04
2019-03-03T18:20:23.421Z,56.07
2019-03-03T18:23:29.602Z,56.19
2019-03-03T18:26:33.197Z,56.33
2019-03-03T18:29:35.791Z,56.37
2019-03-03T18:32:37.782Z,56.32
2019-03-03T18:35:40.859Z,56.24
2019-03-03T18:38:42.836Z,56.23
2019-03-03T18:41:44.802Z,56.26
2019-03-03T18:44:49.217Z,56.33
2019-03-03T18:47:52.600Z,56.37
2019-03-03T18:50:57.772Z,56.34
2019-03-03T18:53:59.697Z,56.26
2019-03-03T18:57:01.803Z,56.28
2019-03-03T19:00:27.461Z,56.43
2019-03-03T19:03:30.353Z,56.54
2019-03-03T19:06:32.398Z,56.51
2019-03-03T19:09:36.342Z,56.57
2019-03-03T19:12:38.299Z,56.68
2019-03-03T19:15:41.863Z,56.77
2019-03-03T19:18:44.288Z,56.84
2019-03-03T19:21:47.352Z,56.85
2019-03-03T19:24:52.402Z,57.00
2019-03-03T19:27:54.914Z,57.06
2019-03-03T19:30:56.963Z,57.23
2019-03-03T19:33:58.956Z,57.61
2019-03-03T19:37:02.559Z,57.84
2019-03-03T19:40:08.221Z,58.05
2019-03-03T19:43:12.854Z,57.98
2019-03-03T19:46:15.215Z,58.20
2019-03-03T19:49:20.516Z,58.14
2019-03-03T19:52:22.614Z,58.31
2019-03-03T19:55:25.065Z,58.52
2019-03-03T19:58:27.272Z,58.52
2019-03-03T20:01:30.002Z,58.59
2019-03-03T20:04:31.959Z,58.62
2019-03-03T20:07:38.132Z,58.73
2019-03-03T20:10:44.047Z,58.75
2019-03-03T20:13:45.990Z,58.80
2019-03-03T20:16:47.996Z,58.91
2019-03-03T20:19:51.021Z,58.90
2019-03-03T20:22:53.004Z,58.95
2019-03-03T20:25:57.140Z,58.99
2019-03-03T20:29:00.937Z,58.98
2019-03-03T20:32:04.350Z,58.91
2019-03-03T20:35:09.227Z,58.88
2019-03-03T20:38:11.323Z,58.93
2019-03-03T20:41:14.488Z,58.77
2019-03-03T20:44:16.707Z,58.46
2019-03-03T20:47:22.181Z,58.46
2019-03-03T20:50:24.712Z,58.31
2019-03-03T20:53:30.578Z,58.26
2019-03-03T20:56:32.789Z,58.26
2019-03-03T20:59:34.879Z,58.36
2019-03-03T21:02:36.837Z,58.35
2019-03-03T21:05:38.734Z,58.31
2019-03-03T21:08:40.650Z,58.27
2019-03-03T21:11:42.661Z,58.39
2019-03-03T21:14:44.561Z,58.35
2019-03-03T21:17:46.555Z,58.41
2019-03-03T21:20:48.521Z,58.33
2019-03-03T21:23:50.799Z,58.43
2019-03-03T21:26:52.756Z,58.58
2019-03-03T21:29:54.678Z,58.78
2019-03-03T21:32:56.683Z,59.01
2019-03-03T21:35:58.569Z,59.09
2019-03-03T21:39:01.362Z,59.17
2019-03-03T21:42:04.124Z,59.27
2019-03-03T21:45:12.115Z,59.38
2019-03-03T21:48:14.510Z,59.24
2019-03-03T21:51:16.569Z,59.27
2019-03-03T21:54:18.526Z,59.08
2019-03-03T21:57:20.491Z,59.12
2019-03-03T22:00:28.902Z,59.08
2019-03-03T22:03:30.917Z,58.92
2019-03-03T22:06:33.202Z,58.89
2019-03-03T22:09:35.137Z,58.71
2019-03-03T22:12:37.151Z,58.64
2019-03-03T22:15:39.155Z,58.69
2019-03-03T22:18:41.125Z,58.58
2019-03-03T22:21:43.054Z,58.65
2019-03-03T22:24:44.984Z,58.55
2019-03-03T22:27:46.951Z,58.59
2019-03-03T22:30:48.837Z,58.56
2019-03-03T22:33:51.853Z,58.63
2019-03-03T22:36:53.778Z,58.64
2019-03-03T22:39:56.270Z,58.54
2019-03-03T22:42:58.161Z,58.51
2019-03-03T22:46:00.100Z,58.55
2019-03-03T22:49:02.875Z,58.57
2019-03-03T22:52:04.823Z,58.75
2019-03-03T22:55:09.237Z,58.65
2019-03-03T22:58:11.189Z,58.51
2019-03-03T23:01:16.724Z,58.42
2019-03-03T23:04:26.821Z,58.38
2019-03-03T23:07:38.011Z,58.32
2019-03-03T23:10:43.627Z,58.39
2019-03-03T23:13:49.164Z,58.58
2019-03-03T23:17:11.640Z,58.71
2019-03-03T23:20:17.215Z,58.93
2019-03-03T23:23:31.666Z,58.92
2019-03-03T23:26:33.676Z,59.20
2019-03-03T23:29:35.635Z,59.21
2019-03-03T23:32:37.639Z,59.04
2019-03-03T23:35:39.733Z,59.22
2019-03-03T23:38:41.706Z,59.23
2019-03-03T23:41:43.696Z,59.19
2019-03-03T23:44:45.982Z,59.18
2019-03-03T23:47:47.930Z,59.41
2019-03-03T23:50:50.461Z,59.64
2019-03-03T23:53:52.342Z,59.81
2019-03-03T23:56:54.352Z,59.79
2019-03-03T23:59:56.310Z,59.92
